sensor_id;sensor_type;location;lat;lon;timestamp;P1;durP1;ratioP1;P2;durP2;ratioP2
55224;SDS011;41091;49.400;8.684;2023-04-23T00:01:37;2.83;;;2.35;;
55224;SDS011;41091;49.400;8.684;2023-04-23T00:04:05;2.28;;;2.08;;
55224;SDS011;41091;49.400;8.684;2023-04-23T00:06:32;6.75;;;3.05;;
55224;SDS011;41091;49.400;8.684;2023-04-23T00:08:58;2.60;;;2.40;;
55224;SDS011;41091;49.400;8.684;2023-04-23T00:11:24;4.82;;;2.20;;
55224;SDS011;41091;49.400;8.684;2023-04-23T00:13:50;5.13;;;2.10;;
55224;SDS011;41091;49.400;8.684;2023-04-23T00:16:17;3.50;;;2.03;;
55224;SDS011;41091;49.400;8.684;2023-04-23T00:18:43;3.22;;;2.60;;
55224;SDS011;41091;49.400;8.684;2023-04-23T00:21:08;2.85;;;2.58;;
55224;SDS011;41091;49.400;8.684;2023-04-23T00:23:36;5.63;;;2.38;;
55224;SDS011;41091;49.400;8.684;2023-04-23T00:26:02;6.15;;;2.42;;
55224;SDS011;41091;49.400;8.684;2023-04-23T00:28:30;2.90;;;2.65;;
55224;SDS011;41091;49.400;8.684;2023-04-23T00:30:58;3.60;;;2.05;;
55224;SDS011;41091;49.400;8.684;2023-04-23T00:33:28;8.43;;;2.60;;
55224;SDS011;41091;49.400;8.684;2023-04-23T00:38:23;3.63;;;2.75;;
55224;SDS011;41091;49.400;8.684;2023-04-23T00:40:50;2.70;;;2.40;;
55224;SDS011;41091;49.400;8.684;2023-04-23T00:43:15;3.00;;;2.72;;
55224;SDS011;41091;49.400;8.684;2023-04-23T00:45:44;3.63;;;2.42;;
55224;SDS011;41091;49.400;8.684;2023-04-23T00:48:10;6.32;;;2.88;;
55224;SDS011;41091;49.400;8.684;2023-04-23T00:50:35;2.67;;;2.47;;
55224;SDS011;41091;49.400;8.684;2023-04-23T00:53:03;5.72;;;2.38;;
55224;SDS011;41091;49.400;8.684;2023-04-23T00:55:29;3.42;;;2.60;;
55224;SDS011;41091;49.400;8.684;2023-04-23T00:57:55;4.75;;;3.17;;
55224;SDS011;41091;49.400;8.684;2023-04-23T01:00:20;3.13;;;2.83;;
55224;SDS011;41091;49.400;8.684;2023-04-23T01:02:46;5.10;;;2.85;;
55224;SDS011;41091;49.400;8.684;2023-04-23T01:05:16;4.30;;;2.50;;
55224;SDS011;41091;49.400;8.684;2023-04-23T01:07:42;3.53;;;3.30;;
55224;SDS011;41091;49.400;8.684;2023-04-23T01:10:09;4.07;;;2.80;;
55224;SDS011;41091;49.400;8.684;2023-04-23T01:12:35;3.30;;;3.00;;
55224;SDS011;41091;49.400;8.684;2023-04-23T01:15:01;3.53;;;2.70;;
55224;SDS011;41091;49.400;8.684;2023-04-23T01:17:26;6.85;;;2.75;;
55224;SDS011;41091;49.400;8.684;2023-04-23T01:19:54;3.67;;;2.45;;
55224;SDS011;41091;49.400;8.684;2023-04-23T01:22:21;3.90;;;2.65;;
55224;SDS011;41091;49.400;8.684;2023-04-23T01:24:47;3.22;;;2.55;;
55224;SDS011;41091;49.400;8.684;2023-04-23T01:27:13;4.85;;;2.92;;
55224;SDS011;41091;49.400;8.684;2023-04-23T01:29:44;3.33;;;2.70;;
55224;SDS011;41091;49.400;8.684;2023-04-23T01:32:14;3.25;;;3.05;;
55224;SDS011;41091;49.400;8.684;2023-04-23T01:34:40;3.30;;;3.00;;
55224;SDS011;41091;49.400;8.684;2023-04-23T01:37:08;8.73;;;3.42;;
55224;SDS011;41091;49.400;8.684;2023-04-23T01:39:36;5.60;;;3.08;;
55224;SDS011;41091;49.400;8.684;2023-04-23T01:42:01;4.03;;;3.13;;
55224;SDS011;41091;49.400;8.684;2023-04-23T01:44:31;3.85;;;3.55;;
55224;SDS011;41091;49.400;8.684;2023-04-23T01:46:56;9.15;;;3.88;;
55224;SDS011;41091;49.400;8.684;2023-04-23T01:49:22;6.47;;;4.00;;
55224;SDS011;41091;49.400;8.684;2023-04-23T01:51:47;7.25;;;4.00;;
55224;SDS011;41091;49.400;8.684;2023-04-23T01:54:13;3.65;;;3.35;;
55224;SDS011;41091;49.400;8.684;2023-04-23T01:56:41;3.85;;;3.65;;
55224;SDS011;41091;49.400;8.684;2023-04-23T01:59:13;5.80;;;3.30;;
55224;SDS011;41091;49.400;8.684;2023-04-23T02:04:09;4.13;;;3.75;;
55224;SDS011;41091;49.400;8.684;2023-04-23T02:06:36;5.15;;;3.58;;
55224;SDS011;41091;49.400;8.684;2023-04-23T02:09:04;5.72;;;3.95;;
55224;SDS011;41091;49.400;8.684;2023-04-23T02:11:30;6.60;;;4.32;;
55224;SDS011;41091;49.400;8.684;2023-04-23T02:13:55;6.97;;;5.05;;
55224;SDS011;41091;49.400;8.684;2023-04-23T02:16:20;5.47;;;4.38;;
55224;SDS011;41091;49.400;8.684;2023-04-23T02:18:48;4.18;;;3.72;;
55224;SDS011;41091;49.400;8.684;2023-04-23T02:21:13;6.72;;;3.97;;
55224;SDS011;41091;49.400;8.684;2023-04-23T02:23:41;4.03;;;3.63;;
55224;SDS011;41091;49.400;8.684;2023-04-23T02:26:09;5.07;;;4.47;;
55224;SDS011;41091;49.400;8.684;2023-04-23T02:28:34;4.90;;;3.63;;
55224;SDS011;41091;49.400;8.684;2023-04-23T02:31:00;11.93;;;4.72;;
55224;SDS011;41091;49.400;8.684;2023-04-23T02:33:30;5.28;;;3.78;;
55224;SDS011;41091;49.400;8.684;2023-04-23T02:35:55;4.32;;;3.88;;
55224;SDS011;41091;49.400;8.684;2023-04-23T02:38:20;8.90;;;3.83;;
55224;SDS011;41091;49.400;8.684;2023-04-23T02:40:48;4.05;;;3.65;;
55224;SDS011;41091;49.400;8.684;2023-04-23T02:43:13;3.80;;;3.60;;
55224;SDS011;41091;49.400;8.684;2023-04-23T02:45:38;6.63;;;4.30;;
55224;SDS011;41091;49.400;8.684;2023-04-23T02:48:04;4.32;;;3.80;;
55224;SDS011;41091;49.400;8.684;2023-04-23T02:50:29;4.50;;;3.78;;
55224;SDS011;41091;49.400;8.684;2023-04-23T02:52:54;3.75;;;3.33;;
55224;SDS011;41091;49.400;8.684;2023-04-23T02:55:20;5.10;;;3.70;;
55224;SDS011;41091;49.400;8.684;2023-04-23T02:57:45;3.55;;;3.35;;
55224;SDS011;41091;49.400;8.684;2023-04-23T03:00:11;3.53;;;3.05;;
55224;SDS011;41091;49.400;8.684;2023-04-23T03:02:39;5.50;;;3.35;;
55224;SDS011;41091;49.400;8.684;2023-04-23T03:05:07;3.05;;;2.78;;
55224;SDS011;41091;49.400;8.684;2023-04-23T03:07:32;2.97;;;2.70;;
55224;SDS011;41091;49.400;8.684;2023-04-23T03:09:58;4.07;;;3.80;;
55224;SDS011;41091;49.400;8.684;2023-04-23T03:12:27;3.33;;;3.05;;
55224;SDS011;41091;49.400;8.684;2023-04-23T03:14:53;4.43;;;3.20;;
55224;SDS011;41091;49.400;8.684;2023-04-23T03:17:20;3.10;;;2.90;;
55224;SDS011;41091;49.400;8.684;2023-04-23T03:19:45;4.40;;;2.83;;
55224;SDS011;41091;49.400;8.684;2023-04-23T03:22:13;3.58;;;2.95;;
55224;SDS011;41091;49.400;8.684;2023-04-23T03:24:38;3.28;;;2.75;;
55224;SDS011;41091;49.400;8.684;2023-04-23T03:27:05;2.85;;;2.65;;
55224;SDS011;41091;49.400;8.684;2023-04-23T03:29:31;2.85;;;2.65;;
55224;SDS011;41091;49.400;8.684;2023-04-23T03:31:56;2.75;;;2.55;;
55224;SDS011;41091;49.400;8.684;2023-04-23T03:34:21;7.72;;;3.08;;
55224;SDS011;41091;49.400;8.684;2023-04-23T03:36:47;3.75;;;3.38;;
55224;SDS011;41091;49.400;8.684;2023-04-23T03:39:13;11.98;;;3.30;;
55224;SDS011;41091;49.400;8.684;2023-04-23T03:41:41;3.00;;;2.80;;
55224;SDS011;41091;49.400;8.684;2023-04-23T03:44:09;2.60;;;2.42;;
55224;SDS011;41091;49.400;8.684;2023-04-23T03:46:35;5.43;;;2.88;;
55224;SDS011;41091;49.400;8.684;2023-04-23T03:49:00;3.30;;;2.65;;
55224;SDS011;41091;49.400;8.684;2023-04-23T03:51:25;2.60;;;2.50;;
55224;SDS011;41091;49.400;8.684;2023-04-23T03:53:52;4.80;;;2.40;;
55224;SDS011;41091;49.400;8.684;2023-04-23T03:56:17;3.10;;;2.20;;
55224;SDS011;41091;49.400;8.684;2023-04-23T03:58:42;3.92;;;2.30;;
55224;SDS011;41091;49.400;8.684;2023-04-23T04:01:10;3.22;;;2.92;;
55224;SDS011;41091;49.400;8.684;2023-04-23T04:03:37;2.00;;;1.90;;
55224;SDS011;41091;49.400;8.684;2023-04-23T04:06:03;4.93;;;2.50;;
55224;SDS011;41091;49.400;8.684;2023-04-23T04:08:28;1.92;;;1.83;;
55224;SDS011;41091;49.400;8.684;2023-04-23T04:10:56;1.90;;;1.80;;
55224;SDS011;41091;49.400;8.684;2023-04-23T04:15:49;1.67;;;1.58;;
55224;SDS011;41091;49.400;8.684;2023-04-23T04:18:15;2.20;;;2.10;;
55224;SDS011;41091;49.400;8.684;2023-04-23T04:20:42;2.45;;;1.85;;
55224;SDS011;41091;49.400;8.684;2023-04-23T04:23:09;2.80;;;2.17;;
55224;SDS011;41091;49.400;8.684;2023-04-23T04:25:34;2.13;;;1.92;;
55224;SDS011;41091;49.400;8.684;2023-04-23T04:28:03;3.58;;;1.63;;
55224;SDS011;41091;49.400;8.684;2023-04-23T04:30:29;1.77;;;1.67;;
55224;SDS011;41091;49.400;8.684;2023-04-23T04:32:57;1.80;;;1.70;;
55224;SDS011;41091;49.400;8.684;2023-04-23T04:35:22;1.95;;;1.45;;
55224;SDS011;41091;49.400;8.684;2023-04-23T04:37:47;1.85;;;1.70;;
55224;SDS011;41091;49.400;8.684;2023-04-23T04:40:17;4.00;;;1.50;;
55224;SDS011;41091;49.400;8.684;2023-04-23T04:42:43;2.20;;;1.50;;
55224;SDS011;41091;49.400;8.684;2023-04-23T04:45:10;1.88;;;1.77;;
55224;SDS011;41091;49.400;8.684;2023-04-23T04:47:36;2.22;;;2.13;;
55224;SDS011;41091;49.400;8.684;2023-04-23T04:50:03;5.20;;;2.10;;
55224;SDS011;41091;49.400;8.684;2023-04-23T04:52:30;4.63;;;2.55;;
55224;SDS011;41091;49.400;8.684;2023-04-23T04:55:01;3.05;;;2.58;;
55224;SDS011;41091;49.400;8.684;2023-04-23T04:57:26;2.95;;;2.85;;
55224;SDS011;41091;49.400;8.684;2023-04-23T04:59:51;4.82;;;3.65;;
55224;SDS011;41091;49.400;8.684;2023-04-23T05:02:17;5.45;;;3.72;;
55224;SDS011;41091;49.400;8.684;2023-04-23T05:04:44;3.95;;;3.58;;
55224;SDS011;41091;49.400;8.684;2023-04-23T05:07:12;3.47;;;3.28;;
55224;SDS011;41091;49.400;8.684;2023-04-23T05:09:38;3.42;;;3.22;;
55224;SDS011;41091;49.400;8.684;2023-04-23T05:12:03;5.88;;;3.75;;
55224;SDS011;41091;49.400;8.684;2023-04-23T05:14:31;5.15;;;3.90;;
55224;SDS011;41091;49.400;8.684;2023-04-23T05:16:56;5.93;;;3.53;;
55224;SDS011;41091;49.400;8.684;2023-04-23T05:19:22;4.05;;;3.72;;
55224;SDS011;41091;49.400;8.684;2023-04-23T05:21:49;6.20;;;3.78;;
55224;SDS011;41091;49.400;8.684;2023-04-23T05:24:15;4.38;;;3.80;;
55224;SDS011;41091;49.400;8.684;2023-04-23T05:26:40;5.05;;;4.28;;
55224;SDS011;41091;49.400;8.684;2023-04-23T05:29:10;4.22;;;3.83;;
55224;SDS011;41091;49.400;8.684;2023-04-23T05:31:41;6.40;;;4.05;;
55224;SDS011;41091;49.400;8.684;2023-04-23T05:34:07;4.32;;;3.88;;
55224;SDS011;41091;49.400;8.684;2023-04-23T05:36:32;5.03;;;4.40;;
55224;SDS011;41091;49.400;8.684;2023-04-23T05:38:57;5.43;;;3.88;;
55224;SDS011;41091;49.400;8.684;2023-04-23T05:41:23;19.95;;;5.10;;
55224;SDS011;41091;49.400;8.684;2023-04-23T05:43:48;7.45;;;4.43;;
55224;SDS011;41091;49.400;8.684;2023-04-23T05:46:16;4.10;;;3.38;;
55224;SDS011;41091;49.400;8.684;2023-04-23T05:48:43;4.15;;;3.78;;
55224;SDS011;41091;49.400;8.684;2023-04-23T05:51:11;4.78;;;3.92;;
55224;SDS011;41091;49.400;8.684;2023-04-23T05:53:37;5.38;;;3.80;;
55224;SDS011;41091;49.400;8.684;2023-04-23T05:56:02;4.00;;;3.63;;
55224;SDS011;41091;49.400;8.684;2023-04-23T05:58:28;3.60;;;3.33;;
55224;SDS011;41091;49.400;8.684;2023-04-23T06:00:53;3.63;;;3.33;;
55224;SDS011;41091;49.400;8.684;2023-04-23T06:03:19;5.22;;;3.42;;
55224;SDS011;41091;49.400;8.684;2023-04-23T06:05:44;5.13;;;4.72;;
55224;SDS011;41091;49.400;8.684;2023-04-23T06:08:10;6.75;;;3.38;;
55224;SDS011;41091;49.400;8.684;2023-04-23T06:10:37;3.65;;;3.00;;
55224;SDS011;41091;49.400;8.684;2023-04-23T06:13:03;4.20;;;3.63;;
55224;SDS011;41091;49.400;8.684;2023-04-23T06:15:31;3.03;;;2.83;;
55224;SDS011;41091;49.400;8.684;2023-04-23T06:17:56;6.97;;;3.53;;
55224;SDS011;41091;49.400;8.684;2023-04-23T06:20:25;16.13;;;5.93;;
55224;SDS011;41091;49.400;8.684;2023-04-23T06:22:50;3.90;;;3.35;;
55224;SDS011;41091;49.400;8.684;2023-04-23T06:25:16;3.00;;;2.75;;
55224;SDS011;41091;49.400;8.684;2023-04-23T06:27:41;2.92;;;2.80;;
55224;SDS011;41091;49.400;8.684;2023-04-23T06:30:07;3.72;;;2.70;;
55224;SDS011;41091;49.400;8.684;2023-04-23T06:32:35;2.67;;;2.58;;
55224;SDS011;41091;49.400;8.684;2023-04-23T06:35:00;2.53;;;2.42;;
55224;SDS011;41091;49.400;8.684;2023-04-23T06:37:25;3.67;;;3.38;;
55224;SDS011;41091;49.400;8.684;2023-04-23T06:39:52;4.05;;;2.40;;
55224;SDS011;41091;49.400;8.684;2023-04-23T06:42:17;3.15;;;2.92;;
55224;SDS011;41091;49.400;8.684;2023-04-23T06:44:42;2.60;;;2.40;;
55224;SDS011;41091;49.400;8.684;2023-04-23T06:47:11;3.03;;;2.65;;
55224;SDS011;41091;49.400;8.684;2023-04-23T06:49:36;2.35;;;2.25;;
55224;SDS011;41091;49.400;8.684;2023-04-23T06:52:04;2.05;;;1.98;;
55224;SDS011;41091;49.400;8.684;2023-04-23T06:54:32;2.20;;;2.00;;
55224;SDS011;41091;49.400;8.684;2023-04-23T06:57:00;2.53;;;2.33;;
55224;SDS011;41091;49.400;8.684;2023-04-23T06:59:27;2.22;;;2.13;;
55224;SDS011;41091;49.400;8.684;2023-04-23T07:01:52;6.28;;;2.10;;
55224;SDS011;41091;49.400;8.684;2023-04-23T07:04:18;6.47;;;1.80;;
55224;SDS011;41091;49.400;8.684;2023-04-23T07:06:43;2.28;;;2.13;;
55224;SDS011;41091;49.400;8.684;2023-04-23T07:09:08;3.67;;;2.22;;
55224;SDS011;41091;49.400;8.684;2023-04-23T07:11:34;2.85;;;2.00;;
55224;SDS011;41091;49.400;8.684;2023-04-23T07:14:02;2.47;;;2.25;;
55224;SDS011;41091;49.400;8.684;2023-04-23T07:16:28;4.10;;;2.40;;
55224;SDS011;41091;49.400;8.684;2023-04-23T07:18:58;3.58;;;2.33;;
55224;SDS011;41091;49.400;8.684;2023-04-23T07:21:25;2.67;;;2.53;;
55224;SDS011;41091;49.400;8.684;2023-04-23T07:23:51;4.05;;;2.83;;
55224;SDS011;41091;49.400;8.684;2023-04-23T07:26:19;2.75;;;2.50;;
55224;SDS011;41091;49.400;8.684;2023-04-23T07:28:45;3.05;;;2.72;;
55224;SDS011;41091;49.400;8.684;2023-04-23T07:31:14;3.38;;;2.53;;
55224;SDS011;41091;49.400;8.684;2023-04-23T07:33:43;3.05;;;2.95;;
55224;SDS011;41091;49.400;8.684;2023-04-23T07:36:11;2.88;;;2.67;;
55224;SDS011;41091;49.400;8.684;2023-04-23T07:38:36;3.10;;;2.90;;
55224;SDS011;41091;49.400;8.684;2023-04-23T07:41:04;3.03;;;2.83;;
55224;SDS011;41091;49.400;8.684;2023-04-23T07:43:29;2.80;;;2.60;;
55224;SDS011;41091;49.400;8.684;2023-04-23T07:45:55;3.20;;;3.00;;
55224;SDS011;41091;49.400;8.684;2023-04-23T07:48:20;2.28;;;2.17;;
55224;SDS011;41091;49.400;8.684;2023-04-23T07:50:45;6.05;;;2.67;;
55224;SDS011;41091;49.400;8.684;2023-04-23T07:53:11;10.07;;;3.78;;
55224;SDS011;41091;49.400;8.684;2023-04-23T07:55:36;4.10;;;3.00;;
55224;SDS011;41091;49.400;8.684;2023-04-23T07:58:02;3.45;;;3.00;;
55224;SDS011;41091;49.400;8.684;2023-04-23T08:00:27;2.80;;;2.60;;
55224;SDS011;41091;49.400;8.684;2023-04-23T08:02:52;2.40;;;2.30;;
55224;SDS011;41091;49.400;8.684;2023-04-23T08:05:18;4.82;;;2.65;;
55224;SDS011;41091;49.400;8.684;2023-04-23T08:07:45;4.80;;;2.80;;
55224;SDS011;41091;49.400;8.684;2023-04-23T08:12:41;2.80;;;2.43;;
55224;SDS011;41091;49.400;8.684;2023-04-23T08:15:06;6.63;;;1.50;;
55224;SDS011;41091;49.400;8.684;2023-04-23T08:17:32;2.00;;;1.88;;
55224;SDS011;41091;49.400;8.684;2023-04-23T08:19:57;1.45;;;1.23;;
55224;SDS011;41091;49.400;8.684;2023-04-23T08:22:25;4.13;;;1.75;;
55224;SDS011;41091;49.400;8.684;2023-04-23T08:24:50;18.25;;;10.30;;
55224;SDS011;41091;49.400;8.684;2023-04-23T08:27:18;1.55;;;1.45;;
55224;SDS011;41091;49.400;8.684;2023-04-23T08:29:43;6.85;;;1.90;;
55224;SDS011;41091;49.400;8.684;2023-04-23T08:32:11;2.55;;;1.70;;
55224;SDS011;41091;49.400;8.684;2023-04-23T08:34:37;2.33;;;1.80;;
55224;SDS011;41091;49.400;8.684;2023-04-23T08:37:07;2.20;;;2.10;;
55224;SDS011;41091;49.400;8.684;2023-04-23T08:39:33;8.77;;;1.92;;
55224;SDS011;41091;49.400;8.684;2023-04-23T08:42:01;2.45;;;1.75;;
55224;SDS011;41091;49.400;8.684;2023-04-23T08:44:29;4.03;;;2.10;;
55224;SDS011;41091;49.400;8.684;2023-04-23T08:46:55;2.75;;;1.73;;
55224;SDS011;41091;49.400;8.684;2023-04-23T08:49:22;1.52;;;1.40;;
55224;SDS011;41091;49.400;8.684;2023-04-23T08:51:48;3.30;;;1.48;;
55224;SDS011;41091;49.400;8.684;2023-04-23T08:54:26;1.58;;;1.55;;
55224;SDS011;41091;49.400;8.684;2023-04-23T08:56:58;3.25;;;1.80;;
55224;SDS011;41091;49.400;8.684;2023-04-23T08:59:24;2.90;;;1.52;;
55224;SDS011;41091;49.400;8.684;2023-04-23T09:01:50;1.60;;;1.50;;
55224;SDS011;41091;49.400;8.684;2023-04-23T09:04:18;1.50;;;1.40;;
55224;SDS011;41091;49.400;8.684;2023-04-23T09:06:44;1.50;;;1.40;;
55224;SDS011;41091;49.400;8.684;2023-04-23T09:09:10;1.75;;;1.60;;
55224;SDS011;41091;49.400;8.684;2023-04-23T09:11:39;1.50;;;1.40;;
55224;SDS011;41091;49.400;8.684;2023-04-23T09:14:05;3.83;;;2.42;;
55224;SDS011;41091;49.400;8.684;2023-04-23T09:16:33;1.88;;;1.30;;
55224;SDS011;41091;49.400;8.684;2023-04-23T09:18:58;2.10;;;1.40;;
55224;SDS011;41091;49.400;8.684;2023-04-23T09:21:24;1.90;;;1.60;;
55224;SDS011;41091;49.400;8.684;2023-04-23T09:23:50;2.42;;;1.25;;
55224;SDS011;41091;49.400;8.684;2023-04-23T09:26:19;1.40;;;1.38;;
55224;SDS011;41091;49.400;8.684;2023-04-23T09:28:47;1.60;;;1.50;;
55224;SDS011;41091;49.400;8.684;2023-04-23T09:31:13;4.00;;;2.08;;
55224;SDS011;41091;49.400;8.684;2023-04-23T09:33:38;1.67;;;1.58;;
55224;SDS011;41091;49.400;8.684;2023-04-23T09:36:09;3.58;;;1.20;;
55224;SDS011;41091;49.400;8.684;2023-04-23T09:38:38;5.35;;;1.40;;
55224;SDS011;41091;49.400;8.684;2023-04-23T09:43:52;2.22;;;1.30;;
55224;SDS011;41091;49.400;8.684;2023-04-23T09:46:40;3.63;;;2.33;;
55224;SDS011;41091;49.400;8.684;2023-04-23T09:49:06;1.60;;;1.25;;
55224;SDS011;41091;49.400;8.684;2023-04-23T09:51:36;2.72;;;1.35;;
55224;SDS011;41091;49.400;8.684;2023-04-23T09:54:12;3.55;;;3.15;;
55224;SDS011;41091;49.400;8.684;2023-04-23T09:56:42;4.40;;;3.95;;
55224;SDS011;41091;49.400;8.684;2023-04-23T10:01:49;1.00;;;1.00;;
55224;SDS011;41091;49.400;8.684;2023-04-23T10:04:17;3.10;;;1.42;;
55224;SDS011;41091;49.400;8.684;2023-04-23T10:06:52;1.55;;;1.45;;
55224;SDS011;41091;49.400;8.684;2023-04-23T10:09:21;1.73;;;0.90;;
55224;SDS011;41091;49.400;8.684;2023-04-23T10:11:56;2.33;;;1.08;;
55224;SDS011;41091;49.400;8.684;2023-04-23T10:14:23;1.17;;;1.17;;
55224;SDS011;41091;49.400;8.684;2023-04-23T10:16:50;1.95;;;1.85;;
55224;SDS011;41091;49.400;8.684;2023-04-23T10:19:20;1.50;;;1.40;;
55224;SDS011;41091;49.400;8.684;2023-04-23T10:21:52;3.13;;;1.20;;
55224;SDS011;41091;49.400;8.684;2023-04-23T10:24:22;1.92;;;1.77;;
55224;SDS011;41091;49.400;8.684;2023-04-23T10:26:49;2.00;;;1.60;;
55224;SDS011;41091;49.400;8.684;2023-04-23T10:29:15;1.92;;;1.40;;
55224;SDS011;41091;49.400;8.684;2023-04-23T10:31:42;2.38;;;1.15;;
55224;SDS011;41091;49.400;8.684;2023-04-23T10:34:10;1.30;;;1.17;;
55224;SDS011;41091;49.400;8.684;2023-04-23T10:36:37;3.00;;;1.60;;
55224;SDS011;41091;49.400;8.684;2023-04-23T10:39:03;1.23;;;1.20;;
55224;SDS011;41091;49.400;8.684;2023-04-23T10:41:38;2.80;;;1.10;;
55224;SDS011;41091;49.400;8.684;2023-04-23T10:44:05;1.55;;;0.90;;
55224;SDS011;41091;49.400;8.684;2023-04-23T10:46:35;2.63;;;0.82;;
55224;SDS011;41091;49.400;8.684;2023-04-23T10:49:06;1.40;;;0.77;;
55224;SDS011;41091;49.400;8.684;2023-04-23T10:51:34;0.68;;;0.68;;
55224;SDS011;41091;49.400;8.684;2023-04-23T10:54:03;1.30;;;0.85;;
55224;SDS011;41091;49.400;8.684;2023-04-23T10:56:30;1.20;;;1.10;;
55224;SDS011;41091;49.400;8.684;2023-04-23T10:58:55;1.05;;;0.88;;
55224;SDS011;41091;49.400;8.684;2023-04-23T11:01:24;2.35;;;0.80;;
55224;SDS011;41091;49.400;8.684;2023-04-23T11:03:51;0.98;;;0.98;;
55224;SDS011;41091;49.400;8.684;2023-04-23T11:12:06;1.38;;;1.25;;
55224;SDS011;41091;49.400;8.684;2023-04-23T11:14:48;3.88;;;1.00;;
55224;SDS011;41091;49.400;8.684;2023-04-23T11:17:15;1.80;;;0.70;;
55224;SDS011;41091;49.400;8.684;2023-04-23T11:22:33;2.97;;;0.85;;
55224;SDS011;41091;49.400;8.684;2023-04-23T11:24:58;1.88;;;0.73;;
55224;SDS011;41091;49.400;8.684;2023-04-23T11:27:25;0.60;;;0.60;;
55224;SDS011;41091;49.400;8.684;2023-04-23T11:29:53;0.93;;;0.93;;
55224;SDS011;41091;49.400;8.684;2023-04-23T11:32:19;3.03;;;0.88;;
55224;SDS011;41091;49.400;8.684;2023-04-23T11:34:48;1.05;;;0.98;;
55224;SDS011;41091;49.400;8.684;2023-04-23T11:37:14;0.73;;;0.73;;
55224;SDS011;41091;49.400;8.684;2023-04-23T11:39:42;2.67;;;0.85;;
55224;SDS011;41091;49.400;8.684;2023-04-23T11:42:12;1.48;;;0.80;;
55224;SDS011;41091;49.400;8.684;2023-04-23T11:44:41;0.85;;;0.82;;
55224;SDS011;41091;49.400;8.684;2023-04-23T11:47:13;0.95;;;0.82;;
55224;SDS011;41091;49.400;8.684;2023-04-23T11:49:41;2.20;;;0.70;;
55224;SDS011;41091;49.400;8.684;2023-04-23T11:52:07;1.05;;;0.90;;
55224;SDS011;41091;49.400;8.684;2023-04-23T11:54:33;1.23;;;0.73;;
55224;SDS011;41091;49.400;8.684;2023-04-23T11:57:01;1.50;;;0.70;;
55224;SDS011;41091;49.400;8.684;2023-04-23T11:59:28;1.50;;;0.70;;
55224;SDS011;41091;49.400;8.684;2023-04-23T12:01:54;0.73;;;0.60;;
55224;SDS011;41091;49.400;8.684;2023-04-23T12:04:28;0.40;;;0.40;;
55224;SDS011;41091;49.400;8.684;2023-04-23T12:06:55;3.80;;;0.70;;
55224;SDS011;41091;49.400;8.684;2023-04-23T12:09:22;2.30;;;0.68;;
55224;SDS011;41091;49.400;8.684;2023-04-23T12:11:50;2.78;;;0.95;;
55224;SDS011;41091;49.400;8.684;2023-04-23T12:14:19;2.47;;;0.70;;
55224;SDS011;41091;49.400;8.684;2023-04-23T12:16:52;0.63;;;0.60;;
55224;SDS011;41091;49.400;8.684;2023-04-23T12:19:18;0.73;;;0.65;;
55224;SDS011;41091;49.400;8.684;2023-04-23T12:21:52;0.52;;;0.50;;
55224;SDS011;41091;49.400;8.684;2023-04-23T12:24:19;1.42;;;1.33;;
55224;SDS011;41091;49.400;8.684;2023-04-23T12:26:49;0.90;;;0.68;;
55224;SDS011;41091;49.400;8.684;2023-04-23T12:29:18;0.55;;;0.50;;
55224;SDS011;41091;49.400;8.684;2023-04-23T12:31:47;0.80;;;0.80;;
55224;SDS011;41091;49.400;8.684;2023-04-23T12:34:13;0.60;;;0.60;;
55224;SDS011;41091;49.400;8.684;2023-04-23T12:36:45;2.17;;;0.70;;
55224;SDS011;41091;49.400;8.684;2023-04-23T12:39:28;0.52;;;0.52;;
55224;SDS011;41091;49.400;8.684;2023-04-23T12:41:58;0.90;;;0.63;;
55224;SDS011;41091;49.400;8.684;2023-04-23T12:44:28;2.47;;;0.60;;
55224;SDS011;41091;49.400;8.684;2023-04-23T12:46:56;2.05;;;0.70;;
55224;SDS011;41091;49.400;8.684;2023-04-23T12:49:23;1.20;;;0.68;;
55224;SDS011;41091;49.400;8.684;2023-04-23T12:51:50;2.60;;;0.70;;
55224;SDS011;41091;49.400;8.684;2023-04-23T12:54:16;0.52;;;0.52;;
55224;SDS011;41091;49.400;8.684;2023-04-23T12:56:44;0.82;;;0.50;;
55224;SDS011;41091;49.400;8.684;2023-04-23T12:59:09;0.70;;;0.63;;
55224;SDS011;41091;49.400;8.684;2023-04-23T13:01:35;0.60;;;0.60;;
55224;SDS011;41091;49.400;8.684;2023-04-23T13:04:03;6.63;;;0.80;;
55224;SDS011;41091;49.400;8.684;2023-04-23T13:06:30;1.80;;;0.65;;
55224;SDS011;41091;49.400;8.684;2023-04-23T13:08:58;3.00;;;0.70;;
55224;SDS011;41091;49.400;8.684;2023-04-23T13:11:27;0.50;;;0.50;;
55224;SDS011;41091;49.400;8.684;2023-04-23T13:16:24;2.47;;;1.13;;
55224;SDS011;41091;49.400;8.684;2023-04-23T13:18:49;4.00;;;0.77;;
55224;SDS011;41091;49.400;8.684;2023-04-23T13:21:16;1.63;;;0.95;;
55224;SDS011;41091;49.400;8.684;2023-04-23T13:23:41;3.40;;;1.85;;
55224;SDS011;41091;49.400;8.684;2023-04-23T13:26:07;1.45;;;0.90;;
55224;SDS011;41091;49.400;8.684;2023-04-23T13:28:33;1.15;;;0.80;;
55224;SDS011;41091;49.400;8.684;2023-04-23T13:31:01;1.55;;;0.93;;
55224;SDS011;41091;49.400;8.684;2023-04-23T13:33:29;0.93;;;0.70;;
55224;SDS011;41091;49.400;8.684;2023-04-23T13:35:55;2.05;;;0.95;;
55224;SDS011;41091;49.400;8.684;2023-04-23T13:38:22;0.70;;;0.57;;
55224;SDS011;41091;49.400;8.684;2023-04-23T13:40:48;1.85;;;1.10;;
55224;SDS011;41091;49.400;8.684;2023-04-23T13:43:13;0.85;;;0.85;;
55224;SDS011;41091;49.400;8.684;2023-04-23T13:45:39;1.73;;;1.00;;
55224;SDS011;41091;49.400;8.684;2023-04-23T13:48:06;1.45;;;0.68;;
55224;SDS011;41091;49.400;8.684;2023-04-23T13:50:32;2.05;;;0.80;;
55224;SDS011;41091;49.400;8.684;2023-04-23T13:52:58;1.05;;;0.90;;
55224;SDS011;41091;49.400;8.684;2023-04-23T13:55:26;1.65;;;0.57;;
55224;SDS011;41091;49.400;8.684;2023-04-23T13:57:51;1.17;;;0.90;;
55224;SDS011;41091;49.400;8.684;2023-04-23T14:00:25;1.15;;;0.45;;
55224;SDS011;41091;49.400;8.684;2023-04-23T14:02:51;0.85;;;0.70;;
55224;SDS011;41091;49.400;8.684;2023-04-23T14:05:17;0.60;;;0.60;;
55224;SDS011;41091;49.400;8.684;2023-04-23T14:07:44;1.67;;;0.70;;
55224;SDS011;41091;49.400;8.684;2023-04-23T14:10:10;0.57;;;0.57;;
55224;SDS011;41091;49.400;8.684;2023-04-23T14:12:36;3.33;;;1.10;;
55224;SDS011;41091;49.400;8.684;2023-04-23T14:15:02;5.63;;;0.85;;
55224;SDS011;41091;49.400;8.684;2023-04-23T14:17:34;1.98;;;0.63;;
55224;SDS011;41091;49.400;8.684;2023-04-23T14:20:05;0.60;;;0.50;;
55224;SDS011;41091;49.400;8.684;2023-04-23T14:22:31;3.83;;;0.60;;
55224;SDS011;41091;49.400;8.684;2023-04-23T14:25:00;1.55;;;0.50;;
55224;SDS011;41091;49.400;8.684;2023-04-23T14:27:30;2.80;;;0.55;;
55224;SDS011;41091;49.400;8.684;2023-04-23T14:29:57;0.60;;;0.55;;
55224;SDS011;41091;49.400;8.684;2023-04-23T14:32:28;0.40;;;0.40;;
55224;SDS011;41091;49.400;8.684;2023-04-23T14:34:56;0.40;;;0.40;;
55224;SDS011;41091;49.400;8.684;2023-04-23T14:37:24;0.60;;;0.60;;
55224;SDS011;41091;49.400;8.684;2023-04-23T14:39:49;0.77;;;0.68;;
55224;SDS011;41091;49.400;8.684;2023-04-23T14:42:15;0.98;;;0.90;;
55224;SDS011;41091;49.400;8.684;2023-04-23T14:44:41;0.60;;;0.60;;
55224;SDS011;41091;49.400;8.684;2023-04-23T14:47:06;0.47;;;0.47;;
55224;SDS011;41091;49.400;8.684;2023-04-23T14:49:34;3.65;;;0.80;;
55224;SDS011;41091;49.400;8.684;2023-04-23T14:51:59;4.53;;;0.60;;
55224;SDS011;41091;49.400;8.684;2023-04-23T14:54:24;4.88;;;0.93;;
55224;SDS011;41091;49.400;8.684;2023-04-23T14:56:50;2.78;;;0.55;;
55224;SDS011;41091;49.400;8.684;2023-04-23T14:59:18;0.63;;;0.63;;
55224;SDS011;41091;49.400;8.684;2023-04-23T15:01:43;0.57;;;0.57;;
55224;SDS011;41091;49.400;8.684;2023-04-23T15:04:09;0.88;;;0.50;;
55224;SDS011;41091;49.400;8.684;2023-04-23T15:06:37;1.15;;;0.60;;
55224;SDS011;41091;49.400;8.684;2023-04-23T15:09:04;0.52;;;0.52;;
55224;SDS011;41091;49.400;8.684;2023-04-23T15:11:32;0.57;;;0.55;;
55224;SDS011;41091;49.400;8.684;2023-04-23T15:14:07;0.35;;;0.35;;